East Burke, Vermont
Current Conditions -  °F | °C
As of 12:15 PM on Thursday 23 Oct 2014 (Local Time) from KCDA Reporting Station
Drizzle Drizzle  
Wind Chill: 44°   Ceiling: 2300
Heat Index: 47°   Visibility: 10mi
Dew Point: 41°   Wind: 8mph
Humidity: 79%   Direction: 310°NW
Pressure: 29.9"   Gusts: NA
Location:  44.59°N, 71.94°W
Report Text: KCDA 231615Z AUTO 31007KT 10SM -DZ OVC023 09/05 A2990 RMK AO2 T00860052
Loading
Personal Weather Stations






























Interactive Weather Map
Tropical Storm Tracking
New forecast layout! Learn more

10-Day Weather Forecast

Advertisements
Track Severe Weather on mobile